createdAt,value
2018-06-16T00:02:34.871Z,51.69
2018-06-16T00:07:37.148Z,52.89
2018-06-16T00:12:39.646Z,52.91
2018-06-16T00:18:03.140Z,52.08
2018-06-16T00:41:59.336Z,50.92
2018-06-16T00:47:26.901Z,50.84
2018-06-16T03:49:34.255Z,53.91
2018-06-16T11:07:07.667Z,55.41
2018-06-16T11:12:09.849Z,60.14
2018-06-16T11:17:12.045Z,58.95
2018-06-16T11:22:14.233Z,62.02
2018-06-16T11:27:16.397Z,64.32
2018-06-16T11:32:18.550Z,63.66
2018-06-16T11:37:20.772Z,67.64
2018-06-16T11:42:23.075Z,67.23
2018-06-16T11:47:25.285Z,65.86
2018-06-16T11:52:27.444Z,67.08
2018-06-16T11:57:29.636Z,69.02
2018-06-16T12:02:31.814Z,65.83
2018-06-16T12:07:34.001Z,65.02
2018-06-16T12:12:37.098Z,66.10
2018-06-16T12:17:39.767Z,64.41
2018-06-16T12:22:41.921Z,64.97
2018-06-16T12:27:44.112Z,64.82
2018-06-16T12:32:47.264Z,65.35
2018-06-16T12:37:49.540Z,64.66
2018-06-16T12:42:51.770Z,63.75
2018-06-16T12:47:53.972Z,65.91
2018-06-16T12:52:56.176Z,63.92
2018-06-16T13:03:07.337Z,63.09
2018-06-16T13:08:09.516Z,60.63
2018-06-16T13:13:11.699Z,59.29
2018-06-16T13:18:13.891Z,56.87
2018-06-16T13:23:16.085Z,59.50
2018-06-16T13:28:18.266Z,61.70
2018-06-16T13:33:20.477Z,57.45
2018-06-16T13:38:22.667Z,52.37
2018-06-16T13:43:24.847Z,52.51
2018-06-16T13:48:27.060Z,54.50
2018-06-16T13:53:29.241Z,53.26
2018-06-16T13:58:31.441Z,53.70
2018-06-16T14:03:33.668Z,54.39
2018-06-16T14:08:35.894Z,53.06
2018-06-16T14:13:38.131Z,51.28
2018-06-16T14:18:40.299Z,51.53
2018-06-16T14:23:42.528Z,51.71
2018-06-16T14:28:44.722Z,50.14
2018-06-16T14:33:46.914Z,47.11
2018-06-16T14:38:49.122Z,46.59
2018-06-16T14:43:51.675Z,46.73
2018-06-16T14:48:53.863Z,46.75
2018-06-16T14:53:56.073Z,44.85
2018-06-16T14:59:04.972Z,43.89
2018-06-16T15:04:07.196Z,46.51
2018-06-16T15:09:10.395Z,45.63
2018-06-16T15:14:12.546Z,45.73
2018-06-16T15:19:14.756Z,45.27
2018-06-16T15:24:16.968Z,45.81
2018-06-16T15:29:20.117Z,46.73
2018-06-16T15:34:22.252Z,47.70
2018-06-16T15:39:24.511Z,49.89
2018-06-16T15:44:26.717Z,55.19
2018-06-16T15:49:28.893Z,63.34
2018-06-16T15:54:31.084Z,65.38
2018-06-16T15:59:33.284Z,63.72
2018-06-16T16:04:35.548Z,67.34
2018-06-16T16:09:37.787Z,68.08
2018-06-16T16:14:40.006Z,66.86
2018-06-16T16:19:42.175Z,68.27
2018-06-16T16:24:44.438Z,64.85
2018-06-16T16:29:46.632Z,65.17
2018-06-16T16:34:48.813Z,64.31
2018-06-16T16:39:51.005Z,59.50
2018-06-16T16:44:53.175Z,61.18
2018-06-16T16:49:55.370Z,60.82
2018-06-16T16:54:57.621Z,59.07
2018-06-16T16:59:59.793Z,59.59
2018-06-16T17:05:02.037Z,61.26
2018-06-16T17:10:04.526Z,62.16
2018-06-16T17:15:06.736Z,61.42
2018-06-16T17:20:08.927Z,62.58
2018-06-16T17:25:11.158Z,63.18
2018-06-16T17:30:13.367Z,63.25
2018-06-16T17:35:15.597Z,62.48
2018-06-16T17:40:17.793Z,61.36
2018-06-16T17:45:20.061Z,62.78
2018-06-16T17:50:22.258Z,63.24
2018-06-16T17:55:24.466Z,63.65
2018-06-16T18:00:26.678Z,63.30
2018-06-16T18:05:28.923Z,64.23
2018-06-16T18:10:31.137Z,65.14
2018-06-16T18:15:33.359Z,65.59
2018-06-16T18:20:35.604Z,66.06
2018-06-16T18:25:37.832Z,64.36
2018-06-16T18:30:40.044Z,64.80
2018-06-16T18:35:42.247Z,64.86
2018-06-16T18:40:44.485Z,65.88
2018-06-16T18:45:46.697Z,65.46
2018-06-16T18:50:48.969Z,66.03
2018-06-16T18:55:51.185Z,65.78
2018-06-16T19:00:53.417Z,66.22
2018-06-16T19:05:55.635Z,66.34
2018-06-16T19:10:57.897Z,66.27
2018-06-16T19:16:00.026Z,67.49
2018-06-16T19:21:02.169Z,67.18
2018-06-16T19:26:04.564Z,67.66
2018-06-16T19:31:06.754Z,67.62
2018-06-16T19:36:08.988Z,68.02
2018-06-16T19:41:11.267Z,67.96
2018-06-16T19:46:13.495Z,68.45
2018-06-16T19:51:15.690Z,64.61
2018-06-16T19:56:17.887Z,64.60
2018-06-16T20:01:20.111Z,64.92
2018-06-16T20:06:22.421Z,64.88
2018-06-16T20:11:24.632Z,64.91
2018-06-16T20:16:26.888Z,64.84
2018-06-16T20:21:29.093Z,64.81
2018-06-16T20:26:33.934Z,64.75
2018-06-16T20:31:36.110Z,65.31
2018-06-16T20:36:38.790Z,64.99
2018-06-16T20:41:40.971Z,65.51
2018-06-16T20:46:43.212Z,65.33
2018-06-16T20:51:45.381Z,65.38
2018-06-16T20:56:47.871Z,66.61
2018-06-16T21:01:50.108Z,67.85
2018-06-16T21:06:52.325Z,69.25
2018-06-16T21:11:54.528Z,70.82
2018-06-16T21:16:56.728Z,71.85
2018-06-16T21:21:58.932Z,72.26
2018-06-16T21:32:10.041Z,72.68
2018-06-16T21:37:12.280Z,72.37
2018-06-16T21:42:14.524Z,72.65
2018-06-16T21:47:16.748Z,72.73
2018-06-16T21:52:18.917Z,73.75
2018-06-16T21:57:21.089Z,74.13
2018-06-16T22:02:23.349Z,73.59
2018-06-16T22:07:25.545Z,73.34
2018-06-16T22:12:27.762Z,74.10
2018-06-16T22:17:30.002Z,74.04
2018-06-16T22:22:32.184Z,74.24
2018-06-16T22:27:34.389Z,73.95
2018-06-16T22:32:36.546Z,74.25
2018-06-16T22:37:38.737Z,74.51
2018-06-16T22:42:41.117Z,74.82
2018-06-16T22:47:43.478Z,74.51
2018-06-16T22:52:45.652Z,74.90
2018-06-16T22:57:47.847Z,74.37
2018-06-16T23:02:50.093Z,74.57
2018-06-16T23:07:52.995Z,74.59
2018-06-16T23:12:55.236Z,75.00
2018-06-16T23:17:57.441Z,75.69
2018-06-16T23:22:59.635Z,75.78
2018-06-16T23:28:01.806Z,74.99
2018-06-16T23:33:04.033Z,74.64
2018-06-16T23:38:06.281Z,74.89
2018-06-16T23:43:08.824Z,74.34
2018-06-16T23:48:11.413Z,74.93
2018-06-16T23:53:13.799Z,74.69
2018-06-16T23:58:16.189Z,74.33
